Northern Light — V7WG4 — position and weather

sailwx.info

Track history (hours):
 
Tides and Currents Weather Stations Pressure Air Temp Water Temp Dewpoint Dewpoint Depression Visibility Wind Speed Wind Dir Waves Ship Positions

Northern Light

Last reported at 2018-Feb-13 17:41 UTC. Time now 2018-Feb-18 18:32 UTC.
Position N 26°26' W 015°40'.

Length 183 m; draft 11.4 m.

Type: Ship (hazmat cat A). MMSI: 538004293.

Date/timePositionNaut miles runAvg speedWind from/ knotsBaromVisibWave heightAir tempDewpointWater temp
2018-Feb-13 17:41N 26°26' W 015°40'212.2
2018-Feb-13 17:30N 26°28' W 015°39'1812.5
2018-Feb-13 16:03N 26°45' W 015°32'113.1
2018-Feb-13 16:00N 26°46' W 015°32'813.0
2018-Feb-13 15:24N 26°53' W 015°29'612.9
2018-Feb-13 14:55N 26°59' W 015°26'512.7
2018-Feb-13 14:30N 27°04' W 015°25'1312.7
2018-Feb-13 13:29N 27°16' W 015°20'612.6
2018-Feb-13 13:00N 27°22' W 015°18'612.4
2018-Feb-13 12:29N 27°28' W 015°15'612.3
2018-Feb-13 12:00N 27°33' W 015°13'612.3
2018-Feb-13 11:30N 27°39' W 015°11'612.2
2018-Feb-13 11:00N 27°45' W 015°09'612.1
2018-Feb-13 10:30N 27°51' W 015°07'612.1
2018-Feb-13 10:00N 27°56' W 015°04'612.1
2018-Feb-13 09:30N 28°02' W 015°02'612.4
2018-Feb-13 09:00N 28°08' W 014°60'612.3
2018-Feb-13 08:30N 28°14' W 014°57'612.5
2018-Feb-13 08:00N 28°20' W 014°55'612.5
2018-Feb-13 07:30N 28°26' W 014°53'612.5
2018-Feb-13 07:00N 28°32' W 014°51'612.5
2018-Feb-13 06:30N 28°38' W 014°49'  
2018-Feb-08 01:31N 50°10' W 001°58'5 9.5
2018-Feb-08 01:00N 50°11' W 001°51'5 9.5
2018-Feb-08 00:30N 50°12' W 001°44'6 9.8
2018-Feb-07 23:52N 50°14' W 001°34'410.3
2018-Feb-07 23:30N 50°15' W 001°29'510.6
2018-Feb-07 23:00N 50°17' W 001°21'16111.9
2018-Feb-07 09:28N 51°22' E 002°33'611.9
2018-Feb-07 08:56N 51°22' E 002°43'510.8
2018-Feb-07 08:30N 51°22' E 002°50'611.1
2018-Feb-07 08:01N 51°23' E 002°59'1110.8
2018-Feb-07 07:00N 51°25' E 003°16'510.7
2018-Feb-07 06:30N 51°25' E 003°25'510.2
2018-Feb-07 06:00N 51°26' E 003°33'4 7.1
2018-Feb-07 05:30N 51°26' E 003°38'4 7.5
2018-Feb-07 05:00N 51°24' E 003°43'5 9.2
2018-Feb-07 04:30N 51°21' E 003°48'5 9.3
2018-Feb-07 04:00N 51°22' E 003°56'5 9.3
2018-Feb-07 03:30N 51°26' E 003°60'7 7.4
2018-Feb-07 02:30N 51°24' E 004°10'4 7.6
2018-Feb-07 02:01N 51°21' E 004°15'1 1.4
2018-Feb-07 01:00N 51°21' E 004°17'0 0.7
2018-Feb-07 00:30N 51°21' E 004°18'3 5.4
2018-Feb-07 00:00N 51°18' E 004°20'2 3.6
2018-Feb-06 23:29N 51°16' E 004°21'0 0.0
2018-Feb-06 22:59N 51°16' E 004°21'0 0.0
2018-Feb-06 22:29N 51°16' E 004°21'0 0.0
2018-Feb-06 21:59N 51°16' E 004°21'0 0.0
2018-Feb-06 21:29N 51°16' E 004°21'0 0.0
2018-Feb-06 20:59N 51°16' E 004°21'0 0.0
2018-Feb-06 20:29N 51°16' E 004°21'0 0.0
2018-Feb-06 19:56N 51°16' E 004°21'0 0.0
2018-Feb-06 19:29N 51°16' E 004°21'0 0.0
2018-Feb-06 18:59N 51°16' E 004°21'0 0.0
2018-Feb-06 18:29N 51°16' E 004°21'0 0.0
2018-Feb-06 17:59N 51°16' E 004°21'0 0.0
2018-Feb-06 17:29N 51°16' E 004°21'0 0.0
2018-Feb-06 16:59N 51°16' E 004°21'0 0.0
2018-Feb-06 16:29N 51°16' E 004°21'0 0.0
2018-Feb-06 15:59N 51°16' E 004°21'0 0.0
2018-Feb-06 15:29N 51°16' E 004°21'0 0.0
2018-Feb-06 14:59N 51°16' E 004°21'0 0.0
2018-Feb-06 14:29N 51°16' E 004°21'0 0.0
2018-Feb-06 13:56N 51°16' E 004°21'0 0.0
2018-Feb-06 13:29N 51°16' E 004°21'0 0.0
2018-Feb-06 12:59N 51°16' E 004°21'0 0.0
2018-Feb-06 12:29N 51°16' E 004°21'0 0.0
2018-Feb-06 11:53N 51°16' E 004°21'0 0.0
2018-Feb-06 11:23N 51°16' E 004°21'0 0.0
2018-Feb-06 10:59N 51°16' E 004°21'0 0.0
2018-Feb-06 10:29N 51°16' E 004°21'0 0.0
2018-Feb-06 09:59N 51°16' E 004°21'0 0.0
2018-Feb-06 09:29N 51°16' E 004°21'0 0.0
2018-Feb-06 08:59N 51°16' E 004°21'0 0.0
2018-Feb-06 08:29N 51°16' E 004°21'0 0.0
2018-Feb-06 07:59N 51°16' E 004°21'0 0.0
2018-Feb-06 07:29N 51°16' E 004°21'0 0.0
2018-Feb-06 06:59N 51°16' E 004°21'0 0.0
2018-Feb-06 06:29N 51°16' E 004°21'0 0.0
2018-Feb-06 05:59N 51°16' E 004°21'0 0.0
2018-Feb-06 05:29N 51°16' E 004°21'0 0.0
2018-Feb-06 04:56N 51°16' E 004°21'0 0.0
2018-Feb-06 04:26N 51°16' E 004°21'0 0.0
2018-Feb-06 03:59N 51°16' E 004°21'0 0.0
2018-Feb-06 03:26N 51°16' E 004°21'0 0.0
2018-Feb-06 02:59N 51°16' E 004°21'0 0.0
2018-Feb-06 02:29N 51°16' E 004°21'0 0.0
2018-Feb-06 01:59N 51°16' E 004°21'0 0.0
2018-Feb-06 01:29N 51°16' E 004°21'0 0.0
2018-Feb-06 00:59N 51°16' E 004°21'0 0.0
2018-Feb-06 00:29N 51°16' E 004°21'0 0.0
2018-Feb-05 23:59N 51°16' E 004°21'0 0.0
2018-Feb-05 23:29N 51°16' E 004°21'0 0.0
2018-Feb-05 22:59N 51°16' E 004°21'0 0.0
2018-Feb-05 22:29N 51°16' E 004°21'0 0.0
2018-Feb-05 21:59N 51°16' E 004°21'0 0.0
2018-Feb-05 21:29N 51°16' E 004°21'0 0.0
2018-Feb-05 20:59N 51°16' E 004°21'0 0.0
2018-Feb-05 20:29N 51°16' E 004°21'0 0.0
2018-Feb-05 19:59N 51°16' E 004°21'0 0.0
2018-Feb-05 19:29N 51°16' E 004°21'0 0.0
2018-Feb-05 18:59N 51°16' E 004°21'0 0.0
2018-Feb-05 18:29N 51°16' E 004°21'0 0.0
2018-Feb-05 17:59N 51°16' E 004°21'0 0.0
2018-Feb-05 17:29N 51°16' E 004°21'0 0.0
2018-Feb-05 16:59N 51°16' E 004°21'0 0.0
2018-Feb-05 16:29N 51°16' E 004°21'0 0.0
2018-Feb-05 15:56N 51°16' E 004°21'0 0.0
2018-Feb-05 15:29N 51°16' E 004°21'0 0.0
2018-Feb-05 14:59N 51°16' E 004°21'0 0.0
2018-Feb-05 14:29N 51°16' E 004°21'0 0.0
2018-Feb-05 13:59N 51°16' E 004°21'0 0.0
2018-Feb-05 13:29N 51°16' E 004°21'0 0.0
2018-Feb-05 12:59N 51°16' E 004°21'0 0.0
2018-Feb-05 12:29N 51°16' E 004°21'0 0.0
2018-Feb-05 11:59N 51°16' E 004°21'0 0.0
2018-Feb-05 11:29N 51°16' E 004°21'0 0.0
2018-Feb-05 10:56N 51°16' E 004°21'0 0.0
2018-Feb-05 10:29N 51°16' E 004°21'0 0.0
2018-Feb-05 09:59N 51°16' E 004°21'0 0.0
2018-Feb-05 09:29N 51°16' E 004°21'0 0.0
2018-Feb-05 08:59N 51°16' E 004°21'0 0.0
2018-Feb-05 08:29N 51°16' E 004°21'0 0.0
2018-Feb-05 07:59N 51°16' E 004°21'0 0.0
2018-Feb-05 07:29N 51°16' E 004°21'0 0.0
2018-Feb-05 06:59N 51°16' E 004°21'0 0.0
2018-Feb-05 06:29N 51°16' E 004°21'0 0.0
2018-Feb-05 05:29N 51°16' E 004°21'0 0.0
2018-Feb-05 04:59N 51°16' E 004°21'0 0.0
2018-Feb-05 04:29N 51°16' E 004°21'0 0.0
2018-Feb-05 03:59N 51°16' E 004°21'0 0.0
2018-Feb-05 03:29N 51°16' E 004°21'0 0.0
2018-Feb-05 02:59N 51°16' E 004°21'0 0.0
2018-Feb-05 02:29N 51°16' E 004°21'0 0.0
2018-Feb-05 01:59N 51°16' E 004°21'0 0.0
2018-Feb-05 01:29N 51°16' E 004°21'0 0.0
2018-Feb-05 00:56N 51°16' E 004°21'0 0.0
2018-Feb-05 00:29N 51°16' E 004°21'0 0.0
2018-Feb-04 23:59N 51°16' E 004°21'0 0.0
2018-Feb-04 23:29N 51°16' E 004°21'0 0.0
2018-Feb-04 22:59N 51°16' E 004°21'0 0.0
2018-Feb-04 22:29N 51°16' E 004°21'0 0.0
2018-Feb-04 21:59N 51°16' E 004°21'0 0.0
2018-Feb-04 21:29N 51°16' E 004°21'0 0.0
2018-Feb-04 20:59N 51°16' E 004°21'0 0.0
2018-Feb-04 19:59N 51°16' E 004°21'0 0.0
2018-Feb-04 19:29N 51°16' E 004°21'0 0.0
2018-Feb-04 18:59N 51°16' E 004°21'0 0.0
2018-Feb-04 18:29N 51°16' E 004°21'0 0.0
2018-Feb-04 17:59N 51°16' E 004°21'0 0.0
2018-Feb-04 17:29N 51°16' E 004°21'0 0.0
2018-Feb-04 15:29N 51°16' E 004°21'0 0.0
2018-Feb-04 14:56N 51°16' E 004°21'0 0.0
2018-Feb-04 14:26N 51°16' E 004°21'0 0.0
2018-Feb-04 13:59N 51°16' E 004°21'0 0.0
2018-Feb-04 13:29N 51°16' E 004°21'0 0.0
2018-Feb-04 12:59N 51°16' E 004°21'0 0.0
2018-Feb-04 12:29N 51°16' E 004°21'0 0.0
2018-Feb-04 11:59N 51°16' E 004°21'0 0.0
2018-Feb-04 11:29N 51°16' E 004°21'0 0.0
2018-Feb-04 09:59N 51°16' E 004°21'0 0.0
2018-Feb-04 08:59N 51°16' E 004°21'0 0.0
2018-Feb-04 08:29N 51°16' E 004°21'0 0.0
2018-Feb-04 08:00N 51°16' E 004°21'0 0.0
2018-Feb-04 07:29N 51°16' E 004°21'0 0.0
2018-Feb-04 06:59N 51°16' E 004°21'0 0.0
2018-Feb-04 06:29N 51°16' E 004°21'0 0.0
2018-Feb-04 05:59N 51°16' E 004°21'0 0.0
2018-Feb-04 05:29N 51°16' E 004°21'0 0.0
2018-Feb-04 04:59N 51°16' E 004°21'0 0.0
2018-Feb-04 04:29N 51°16' E 004°21'0 0.0
2018-Feb-04 03:56N 51°16' E 004°21'0 0.0
2018-Feb-04 03:29N 51°16' E 004°21'0 0.0
2018-Feb-04 02:59N 51°16' E 004°21'0 0.0
2018-Feb-04 02:29N 51°16' E 004°21'0 0.0
2018-Feb-04 01:59N 51°16' E 004°21'0 0.0
2018-Feb-04 01:29N 51°16' E 004°21'0 0.0
2018-Feb-04 00:59N 51°16' E 004°21'0 0.0
2018-Feb-04 00:29N 51°16' E 004°21'0 0.0
2018-Feb-03 23:59N 51°16' E 004°21'0 0.0
2018-Feb-03 23:29N 51°16' E 004°21'0 0.0
2018-Feb-03 22:59N 51°16' E 004°21'0 0.1
2018-Feb-03 22:30N 51°16' E 004°21'0 0.0
2018-Feb-03 21:51N 51°16' E 004°21'0 0.0
2018-Feb-03 21:30N 51°16' E 004°21'0 0.0
2018-Feb-03 21:00N 51°16' E 004°21'0 0.0
2018-Feb-03 20:30N 51°16' E 004°21'0 0.0
2018-Feb-03 20:00N 51°16' E 004°21'0 0.0
2018-Feb-03 18:30N 51°16' E 004°21'0 0.0
2018-Feb-03 18:00N 51°16' E 004°21'  
Track history (hours):
 
Tides and Currents Weather Stations Pressure Air Temp Water Temp Dewpoint Dewpoint Depression Visibility Wind Speed Wind Dir Waves Ship Positions

Northern Light

Last reported at 2018-Feb-13 17:41 UTC. Time now 2018-Feb-18 18:32 UTC.
Position N 26°26' W 015°40'.

Length 183 m; draft 11.4 m.

Type: Ship (hazmat cat A). MMSI: 538004293.

Date/timePositionNaut miles runAvg speedWind from/ knotsBaromVisibWave heightAir tempDewpointWater temp
2018-Feb-13 17:41N 26°26' W 015°40'212.2
2018-Feb-13 17:30N 26°28' W 015°39'1812.5
2018-Feb-13 16:03N 26°45' W 015°32'113.1
2018-Feb-13 16:00N 26°46' W 015°32'813.0
2018-Feb-13 15:24N 26°53' W 015°29'612.9
2018-Feb-13 14:55N 26°59' W 015°26'512.7
2018-Feb-13 14:30N 27°04' W 015°25'1312.7
2018-Feb-13 13:29N 27°16' W 015°20'612.6
2018-Feb-13 13:00N 27°22' W 015°18'612.4
2018-Feb-13 12:29N 27°28' W 015°15'612.3
2018-Feb-13 12:00N 27°33' W 015°13'612.3
2018-Feb-13 11:30N 27°39' W 015°11'612.2
2018-Feb-13 11:00N 27°45' W 015°09'612.1
2018-Feb-13 10:30N 27°51' W 015°07'612.1
2018-Feb-13 10:00N 27°56' W 015°04'612.1
2018-Feb-13 09:30N 28°02' W 015°02'612.4
2018-Feb-13 09:00N 28°08' W 014°60'612.3
2018-Feb-13 08:30N 28°14' W 014°57'612.5
2018-Feb-13 08:00N 28°20' W 014°55'612.5
2018-Feb-13 07:30N 28°26' W 014°53'612.5
2018-Feb-13 07:00N 28°32' W 014°51'612.5
2018-Feb-13 06:30N 28°38' W 014°49'  
2018-Feb-08 01:31N 50°10' W 001°58'5 9.5
2018-Feb-08 01:00N 50°11' W 001°51'5 9.5
2018-Feb-08 00:30N 50°12' W 001°44'6 9.8
2018-Feb-07 23:52N 50°14' W 001°34'410.3
2018-Feb-07 23:30N 50°15' W 001°29'510.6
2018-Feb-07 23:00N 50°17' W 001°21'16111.9
2018-Feb-07 09:28N 51°22' E 002°33'611.9
2018-Feb-07 08:56N 51°22' E 002°43'510.8
2018-Feb-07 08:30N 51°22' E 002°50'611.1
2018-Feb-07 08:01N 51°23' E 002°59'1110.8
2018-Feb-07 07:00N 51°25' E 003°16'510.7
2018-Feb-07 06:30N 51°25' E 003°25'510.2
2018-Feb-07 06:00N 51°26' E 003°33'4 7.1
2018-Feb-07 05:30N 51°26' E 003°38'4 7.5
2018-Feb-07 05:00N 51°24' E 003°43'5 9.2
2018-Feb-07 04:30N 51°21' E 003°48'5 9.3
2018-Feb-07 04:00N 51°22' E 003°56'5 9.3
2018-Feb-07 03:30N 51°26' E 003°60'7 7.4
2018-Feb-07 02:30N 51°24' E 004°10'4 7.6
2018-Feb-07 02:01N 51°21' E 004°15'1 1.4
2018-Feb-07 01:00N 51°21' E 004°17'0 0.7
2018-Feb-07 00:30N 51°21' E 004°18'3 5.4
2018-Feb-07 00:00N 51°18' E 004°20'2 3.6
2018-Feb-06 23:29N 51°16' E 004°21'0 0.0
2018-Feb-06 22:59N 51°16' E 004°21'0 0.0
2018-Feb-06 22:29N 51°16' E 004°21'0 0.0
2018-Feb-06 21:59N 51°16' E 004°21'0 0.0
2018-Feb-06 21:29N 51°16' E 004°21'0 0.0
2018-Feb-06 20:59N 51°16' E 004°21'0 0.0
2018-Feb-06 20:29N 51°16' E 004°21'0 0.0
2018-Feb-06 19:56N 51°16' E 004°21'0 0.0
2018-Feb-06 19:29N 51°16' E 004°21'0 0.0
2018-Feb-06 18:59N 51°16' E 004°21'0 0.0
2018-Feb-06 18:29N 51°16' E 004°21'0 0.0
2018-Feb-06 17:59N 51°16' E 004°21'0 0.0
2018-Feb-06 17:29N 51°16' E 004°21'0 0.0
2018-Feb-06 16:59N 51°16' E 004°21'0 0.0
2018-Feb-06 16:29N 51°16' E 004°21'0 0.0
2018-Feb-06 15:59N 51°16' E 004°21'0 0.0
2018-Feb-06 15:29N 51°16' E 004°21'0 0.0
2018-Feb-06 14:59N 51°16' E 004°21'0 0.0
2018-Feb-06 14:29N 51°16' E 004°21'0 0.0
2018-Feb-06 13:56N 51°16' E 004°21'0 0.0
2018-Feb-06 13:29N 51°16' E 004°21'0 0.0
2018-Feb-06 12:59N 51°16' E 004°21'0 0.0
2018-Feb-06 12:29N 51°16' E 004°21'0 0.0
2018-Feb-06 11:53N 51°16' E 004°21'0 0.0
2018-Feb-06 11:23N 51°16' E 004°21'0 0.0
2018-Feb-06 10:59N 51°16' E 004°21'0 0.0
2018-Feb-06 10:29N 51°16' E 004°21'0 0.0
2018-Feb-06 09:59N 51°16' E 004°21'0 0.0
2018-Feb-06 09:29N 51°16' E 004°21'0 0.0
2018-Feb-06 08:59N 51°16' E 004°21'0 0.0
2018-Feb-06 08:29N 51°16' E 004°21'0 0.0
2018-Feb-06 07:59N 51°16' E 004°21'0 0.0
2018-Feb-06 07:29N 51°16' E 004°21'0 0.0
2018-Feb-06 06:59N 51°16' E 004°21'0 0.0
2018-Feb-06 06:29N 51°16' E 004°21'0 0.0
2018-Feb-06 05:59N 51°16' E 004°21'0 0.0
2018-Feb-06 05:29N 51°16' E 004°21'0 0.0
2018-Feb-06 04:56N 51°16' E 004°21'0 0.0
2018-Feb-06 04:26N 51°16' E 004°21'0 0.0
2018-Feb-06 03:59N 51°16' E 004°21'0 0.0
2018-Feb-06 03:26N 51°16' E 004°21'0 0.0
2018-Feb-06 02:59N 51°16' E 004°21'0 0.0
2018-Feb-06 02:29N 51°16' E 004°21'0 0.0
2018-Feb-06 01:59N 51°16' E 004°21'0 0.0
2018-Feb-06 01:29N 51°16' E 004°21'0 0.0
2018-Feb-06 00:59N 51°16' E 004°21'0 0.0
2018-Feb-06 00:29N 51°16' E 004°21'0 0.0
2018-Feb-05 23:59N 51°16' E 004°21'0 0.0
2018-Feb-05 23:29N 51°16' E 004°21'0 0.0
2018-Feb-05 22:59N 51°16' E 004°21'0 0.0
2018-Feb-05 22:29N 51°16' E 004°21'0 0.0
2018-Feb-05 21:59N 51°16' E 004°21'0 0.0
2018-Feb-05 21:29N 51°16' E 004°21'0 0.0
2018-Feb-05 20:59N 51°16' E 004°21'0 0.0
2018-Feb-05 20:29N 51°16' E 004°21'0 0.0
2018-Feb-05 19:59N 51°16' E 004°21'0 0.0
2018-Feb-05 19:29N 51°16' E 004°21'0 0.0
2018-Feb-05 18:59N 51°16' E 004°21'0 0.0
2018-Feb-05 18:29N 51°16' E 004°21'0 0.0
2018-Feb-05 17:59N 51°16' E 004°21'0 0.0
2018-Feb-05 17:29N 51°16' E 004°21'0 0.0
2018-Feb-05 16:59N 51°16' E 004°21'0 0.0
2018-Feb-05 16:29N 51°16' E 004°21'0 0.0
2018-Feb-05 15:56N 51°16' E 004°21'0 0.0
2018-Feb-05 15:29N 51°16' E 004°21'0 0.0
2018-Feb-05 14:59N 51°16' E 004°21'0 0.0
2018-Feb-05 14:29N 51°16' E 004°21'0 0.0
2018-Feb-05 13:59N 51°16' E 004°21'0 0.0
2018-Feb-05 13:29N 51°16' E 004°21'0 0.0
2018-Feb-05 12:59N 51°16' E 004°21'0 0.0
2018-Feb-05 12:29N 51°16' E 004°21'0 0.0
2018-Feb-05 11:59N 51°16' E 004°21'0 0.0
2018-Feb-05 11:29N 51°16' E 004°21'0 0.0
2018-Feb-05 10:56N 51°16' E 004°21'0 0.0
2018-Feb-05 10:29N 51°16' E 004°21'0 0.0
2018-Feb-05 09:59N 51°16' E 004°21'0 0.0
2018-Feb-05 09:29N 51°16' E 004°21'0 0.0
2018-Feb-05 08:59N 51°16' E 004°21'0 0.0
2018-Feb-05 08:29N 51°16' E 004°21'0 0.0
2018-Feb-05 07:59N 51°16' E 004°21'0 0.0
2018-Feb-05 07:29N 51°16' E 004°21'0 0.0
2018-Feb-05 06:59N 51°16' E 004°21'0 0.0
2018-Feb-05 06:29N 51°16' E 004°21'0 0.0
2018-Feb-05 05:29N 51°16' E 004°21'0 0.0
2018-Feb-05 04:59N 51°16' E 004°21'0 0.0
2018-Feb-05 04:29N 51°16' E 004°21'0 0.0
2018-Feb-05 03:59N 51°16' E 004°21'0 0.0
2018-Feb-05 03:29N 51°16' E 004°21'0 0.0
2018-Feb-05 02:59N 51°16' E 004°21'0 0.0
2018-Feb-05 02:29N 51°16' E 004°21'0 0.0
2018-Feb-05 01:59N 51°16' E 004°21'0 0.0
2018-Feb-05 01:29N 51°16' E 004°21'0 0.0
2018-Feb-05 00:56N 51°16' E 004°21'0 0.0
2018-Feb-05 00:29N 51°16' E 004°21'0 0.0
2018-Feb-04 23:59N 51°16' E 004°21'0 0.0
2018-Feb-04 23:29N 51°16' E 004°21'0 0.0
2018-Feb-04 22:59N 51°16' E 004°21'0 0.0
2018-Feb-04 22:29N 51°16' E 004°21'0 0.0
2018-Feb-04 21:59N 51°16' E 004°21'0 0.0
2018-Feb-04 21:29N 51°16' E 004°21'0 0.0
2018-Feb-04 20:59N 51°16' E 004°21'0 0.0
2018-Feb-04 19:59N 51°16' E 004°21'0 0.0
2018-Feb-04 19:29N 51°16' E 004°21'0 0.0
2018-Feb-04 18:59N 51°16' E 004°21'0 0.0
2018-Feb-04 18:29N 51°16' E 004°21'0 0.0
2018-Feb-04 17:59N 51°16' E 004°21'0 0.0
2018-Feb-04 17:29N 51°16' E 004°21'0 0.0
2018-Feb-04 15:29N 51°16' E 004°21'0 0.0
2018-Feb-04 14:56N 51°16' E 004°21'0 0.0
2018-Feb-04 14:26N 51°16' E 004°21'0 0.0
2018-Feb-04 13:59N 51°16' E 004°21'0 0.0
2018-Feb-04 13:29N 51°16' E 004°21'0 0.0
2018-Feb-04 12:59N 51°16' E 004°21'0 0.0
2018-Feb-04 12:29N 51°16' E 004°21'0 0.0
2018-Feb-04 11:59N 51°16' E 004°21'0 0.0
2018-Feb-04 11:29N 51°16' E 004°21'0 0.0
2018-Feb-04 09:59N 51°16' E 004°21'0 0.0
2018-Feb-04 08:59N 51°16' E 004°21'0 0.0
2018-Feb-04 08:29N 51°16' E 004°21'0 0.0
2018-Feb-04 08:00N 51°16' E 004°21'0 0.0
2018-Feb-04 07:29N 51°16' E 004°21'0 0.0
2018-Feb-04 06:59N 51°16' E 004°21'0 0.0
2018-Feb-04 06:29N 51°16' E 004°21'0 0.0
2018-Feb-04 05:59N 51°16' E 004°21'0 0.0
2018-Feb-04 05:29N 51°16' E 004°21'0 0.0
2018-Feb-04 04:59N 51°16' E 004°21'0 0.0
2018-Feb-04 04:29N 51°16' E 004°21'0 0.0
2018-Feb-04 03:56N 51°16' E 004°21'0 0.0
2018-Feb-04 03:29N 51°16' E 004°21'0 0.0
2018-Feb-04 02:59N 51°16' E 004°21'0 0.0
2018-Feb-04 02:29N 51°16' E 004°21'0 0.0
2018-Feb-04 01:59N 51°16' E 004°21'0 0.0
2018-Feb-04 01:29N 51°16' E 004°21'0 0.0
2018-Feb-04 00:59N 51°16' E 004°21'0 0.0
2018-Feb-04 00:29N 51°16' E 004°21'0 0.0
2018-Feb-03 23:59N 51°16' E 004°21'0 0.0
2018-Feb-03 23:29N 51°16' E 004°21'0 0.0
2018-Feb-03 22:59N 51°16' E 004°21'0 0.1
2018-Feb-03 22:30N 51°16' E 004°21'0 0.0
2018-Feb-03 21:51N 51°16' E 004°21'0 0.0
2018-Feb-03 21:30N 51°16' E 004°21'0 0.0
2018-Feb-03 21:00N 51°16' E 004°21'0 0.0
2018-Feb-03 20:30N 51°16' E 004°21'0 0.0
2018-Feb-03 20:00N 51°16' E 004°21'0 0.0
2018-Feb-03 18:30N 51°16' E 004°21'0 0.0
2018-Feb-03 18:00N 51°16' E 004°21'  

Dump ship's entire track history